Time;durP1;ratioP1;P1;durP2;ratioP2;P2;SDS_P1;SDS_P2;PMS_P1;PMS_P2;Temp;Humidity;BMP_temperature;BMP_pressure;BME280_temperature;BME280_humidity;BME280_pressure;Samples;Min_cycle;Max_cycle;Signal;HPM_P1;HPM_P2
2024/01/15 00:02:16;;;;;;;;;39.67;34.67;;;;;;;;5058735;28;45488;-84
2024/01/15 00:04:41;;;;;;;;;43.00;33.00;;;;;;;;5056083;28;45402;-84
2024/01/15 00:07:07;;;;;;;;;28.75;22.75;;;;;;;;5055235;28;45343;-82
2024/01/15 00:09:32;;;;;;;;;45.75;37.50;;;;;;;;5036289;28;45342;-83
2024/01/15 00:11:57;;;;;;;;;27.67;20.33;;;;;;;;5050546;28;46053;-82
2024/01/15 00:14:22;;;;;;;;;47.00;39.33;;;;;;;;5037597;28;45932;-82
2024/01/15 00:16:50;;;;;;;;;47.50;38.50;;;;;;;;5057418;28;45334;-83
2024/01/15 00:19:15;;;;;;;;;46.75;42.00;;;;;;;;5050975;28;45470;-83
2024/01/15 00:21:41;;;;;;;;;40.75;32.00;;;;;;;;5056400;28;46127;-83
2024/01/15 00:24:06;;;;;;;;;41.67;35.67;;;;;;;;5044180;28;45300;-83
2024/01/15 00:26:31;;;;;;;;;32.33;31.00;;;;;;;;5042846;28;45390;-82
2024/01/15 00:28:56;;;;;;;;;36.67;28.33;;;;;;;;5029326;28;45193;-83
2024/01/15 00:31:21;;;;;;;;;38.33;31.00;;;;;;;;5057555;28;46303;-83
2024/01/15 00:33:46;;;;;;;;;37.00;31.67;;;;;;;;5054513;28;45417;-82
2024/01/15 00:36:12;;;;;;;;;42.00;33.33;;;;;;;;5042938;28;45505;-82
2024/01/15 00:38:37;;;;;;;;;37.00;31.33;;;;;;;;5036683;28;45914;-82
2024/01/15 00:41:02;;;;;;;;;38.00;29.75;;;;;;;;5029922;28;47008;-82
2024/01/15 00:43:28;;;;;;;;;41.75;32.25;;;;;;;;5060382;28;45286;-83
2024/01/15 00:45:53;;;;;;;;;38.67;31.33;;;;;;;;5055393;28;45413;-83
2024/01/15 00:48:18;;;;;;;;;34.00;29.67;;;;;;;;5041597;28;45388;-82
2024/01/15 00:50:43;;;;;;;;;35.33;28.67;;;;;;;;5056648;28;45429;-82
2024/01/15 00:53:08;;;;;;;;;36.00;28.00;;;;;;;;5046793;28;45453;-82
2024/01/15 00:55:34;;;;;;;;;30.67;28.00;;;;;;;;5030424;28;45584;-82
2024/01/15 00:57:59;;;;;;;;;39.00;35.00;;;;;;;;5052127;28;45450;-83
2024/01/15 01:00:24;;;;;;;;;44.67;37.00;;;;;;;;5038042;28;47261;-83
2024/01/15 01:02:49;;;;;;;;;44.00;34.67;;;;;;;;5058490;28;45299;-83
2024/01/15 01:05:14;;;;;;;;;32.67;28.67;;;;;;;;5038403;28;45279;-83
2024/01/15 01:07:40;;;;;;;;;36.33;29.33;;;;;;;;5038727;28;45276;-83
2024/01/15 01:10:05;;;;;;;;;30.67;27.00;;;;;;;;5039828;28;45422;-83
2024/01/15 01:12:30;;;;;;;;;28.75;27.75;;;;;;;;5043967;28;45400;-83
2024/01/15 01:14:55;;;;;;;;;37.00;34.00;;;;;;;;5037724;28;45293;-83
2024/01/15 01:17:21;;;;;;;;;25.50;24.25;;;;;;;;5054532;28;45469;-83
2024/01/15 01:19:46;;;;;;;;;32.25;28.25;;;;;;;;5038283;28;47429;-83
2024/01/15 01:22:11;;;;;;;;;44.00;38.33;;;;;;;;5055573;28;45330;-83
2024/01/15 01:24:36;;;;;;;;;33.00;29.33;;;;;;;;5044235;28;45306;-83
2024/01/15 01:27:02;;;;;;;;;32.67;29.33;;;;;;;;5057127;28;45466;-83
2024/01/15 01:29:27;;;;;;;;;31.00;29.33;;;;;;;;5027253;28;48038;-83
2024/01/15 01:31:52;;;;;;;;;33.33;27.00;;;;;;;;5038605;28;45296;-83
2024/01/15 01:34:17;;;;;;;;;31.67;25.67;;;;;;;;5041316;28;45209;-83
2024/01/15 01:36:43;;;;;;;;;30.33;28.33;;;;;;;;5059763;28;45365;-82
2024/01/15 01:39:09;;;;;;;;;34.75;31.75;;;;;;;;5039310;28;47453;-83
2024/01/15 01:41:34;;;;;;;;;32.00;27.00;;;;;;;;5059864;28;45865;-82
2024/01/15 01:43:59;;;;;;;;;32.33;30.00;;;;;;;;5040846;28;45252;-82
2024/01/15 01:46:26;;;;;;;;;40.67;35.00;;;;;;;;5051192;28;45207;-82
2024/01/15 01:48:52;;;;;;;;;39.25;32.75;;;;;;;;5056945;28;46212;-82
2024/01/15 01:51:17;;;;;;;;;33.00;29.50;;;;;;;;5051503;28;45992;-82
2024/01/15 01:53:44;;;;;;;;;26.75;26.00;;;;;;;;5043424;28;45461;-82
2024/01/15 01:56:09;;;;;;;;;37.00;32.00;;;;;;;;5024756;28;45600;-82
2024/01/15 01:58:35;;;;;;;;;34.25;28.75;;;;;;;;5052428;28;45815;-82
2024/01/15 02:01:00;;;;;;;;;25.33;23.00;;;;;;;;5055634;28;45401;-82
2024/01/15 02:03:30;;;;;;;;;34.25;30.00;;;;;;;;5053720;28;45294;-82
2024/01/15 02:05:55;;;;;;;;;29.50;24.75;;;;;;;;5052716;28;45340;-82
2024/01/15 02:08:21;;;;;;;;;32.00;23.25;;;;;;;;5049407;28;45623;-82
2024/01/15 02:10:46;;;;;;;;;33.00;24.75;;;;;;;;5044581;28;45197;-82
2024/01/15 02:13:11;;;;;;;;;30.33;21.00;;;;;;;;5045799;28;45551;-82
2024/01/15 02:15:36;;;;;;;;;30.00;26.67;;;;;;;;5054732;28;45333;-82
2024/01/15 02:18:03;;;;;;;;;29.33;26.67;;;;;;;;5051831;28;45504;-82
2024/01/15 02:20:28;;;;;;;;;34.75;29.25;;;;;;;;5051175;28;45947;-82
2024/01/15 02:22:54;;;;;;;;;40.00;32.00;;;;;;;;5037590;28;46957;-82
2024/01/15 02:25:19;;;;;;;;;31.75;24.75;;;;;;;;5031346;28;45545;-82
2024/01/15 02:27:46;;;;;;;;;33.75;26.00;;;;;;;;5033416;28;47006;-82
2024/01/15 02:30:11;;;;;;;;;42.00;28.25;;;;;;;;5031793;28;45398;-82
2024/01/15 02:32:36;;;;;;;;;32.00;25.00;;;;;;;;5039401;28;45322;-82
2024/01/15 02:35:02;;;;;;;;;39.00;29.33;;;;;;;;5049947;28;45469;-82
2024/01/15 02:37:27;;;;;;;;;29.00;26.00;;;;;;;;5042781;28;45487;-82
2024/01/15 02:39:52;;;;;;;;;33.67;28.00;;;;;;;;5059172;28;45428;-82
2024/01/15 02:42:17;;;;;;;;;30.50;25.75;;;;;;;;5057706;28;45250;-82
2024/01/15 02:44:42;;;;;;;;;29.00;22.33;;;;;;;;5056928;28;45363;-82
2024/01/15 02:47:08;;;;;;;;;32.33;28.00;;;;;;;;5047675;28;46109;-82
2024/01/15 02:49:33;;;;;;;;;24.33;23.00;;;;;;;;5040857;28;45363;-82
2024/01/15 02:51:58;;;;;;;;;31.33;24.67;;;;;;;;5040215;28;45585;-82
2024/01/15 02:54:23;;;;;;;;;30.33;30.00;;;;;;;;5026108;28;45267;-82
2024/01/15 02:56:48;;;;;;;;;22.33;22.33;;;;;;;;5041461;28;46147;-82
2024/01/15 02:59:14;;;;;;;;;25.00;24.67;;;;;;;;5039005;28;45219;-82
2024/01/15 03:01:39;;;;;;;;;26.33;23.67;;;;;;;;5036607;28;45553;-82
2024/01/15 03:04:04;;;;;;;;;33.33;32.67;;;;;;;;5048167;28;45406;-82
2024/01/15 03:06:29;;;;;;;;;38.67;28.33;;;;;;;;5036078;28;48032;-82
2024/01/15 03:08:54;;;;;;;;;28.33;21.00;;;;;;;;5037826;28;45827;-82
2024/01/15 03:11:19;;;;;;;;;30.67;28.33;;;;;;;;5049342;28;45223;-82
2024/01/15 03:13:45;;;;;;;;;30.67;28.67;;;;;;;;5048904;28;45241;-82
2024/01/15 03:16:10;;;;;;;;;33.33;28.33;;;;;;;;5052897;28;45963;-83
2024/01/15 03:18:35;;;;;;;;;32.00;28.75;;;;;;;;5056971;28;45343;-82
2024/01/15 03:21:01;;;;;;;;;37.00;30.00;;;;;;;;5029521;28;45484;-82
2024/01/15 03:23:26;;;;;;;;;36.50;31.75;;;;;;;;5048084;28;45325;-82
2024/01/15 03:25:51;;;;;;;;;38.75;33.00;;;;;;;;5034025;28;47059;-82
2024/01/15 03:28:17;;;;;;;;;38.00;30.00;;;;;;;;5031920;28;45438;-82
2024/01/15 03:30:42;;;;;;;;;30.00;30.00;;;;;;;;5033594;28;45420;-82
2024/01/15 03:33:07;;;;;;;;;25.00;23.67;;;;;;;;5039324;28;45585;-82
2024/01/15 03:35:32;;;;;;;;;28.00;22.33;;;;;;;;5039163;28;47423;-82
2024/01/15 03:37:57;;;;;;;;;21.33;21.00;;;;;;;;5046895;28;45425;-82
2024/01/15 03:40:23;;;;;;;;;26.33;21.00;;;;;;;;5057055;28;45319;-82
2024/01/15 03:42:48;;;;;;;;;20.33;19.00;;;;;;;;5058097;28;45300;-82
2024/01/15 03:45:13;;;;;;;;;27.00;22.33;;;;;;;;5024834;28;48672;-82
2024/01/15 03:47:38;;;;;;;;;26.33;22.33;;;;;;;;5039578;28;45307;-82
2024/01/15 03:50:03;;;;;;;;;29.67;24.00;;;;;;;;5037586;28;45567;-82
2024/01/15 03:52:29;;;;;;;;;24.50;21.00;;;;;;;;5037969;28;45401;-82
2024/01/15 03:54:54;;;;;;;;;26.50;23.25;;;;;;;;5043515;28;45405;-82
2024/01/15 03:57:19;;;;;;;;;22.33;17.00;;;;;;;;5044979;28;45270;-82
2024/01/15 03:59:47;;;;;;;;;21.67;21.00;;;;;;;;5051429;28;45321;-82
2024/01/15 04:02:12;;;;;;;;;23.75;20.50;;;;;;;;5052836;28;45449;-82
2024/01/15 04:04:40;;;;;;;;;22.33;21.00;;;;;;;;5054072;28;46076;-82
2024/01/15 04:07:05;;;;;;;;;24.25;20.75;;;;;;;;5051793;28;45251;-82
2024/01/15 04:09:31;;;;;;;;;32.00;20.75;;;;;;;;5050959;28;45311;-82
2024/01/15 04:11:56;;;;;;;;;28.33;21.00;;;;;;;;5046960;28;45300;-82
2024/01/15 04:14:21;;;;;;;;;20.33;19.33;;;;;;;;5041817;28;45424;-82
2024/01/15 04:16:46;;;;;;;;;20.00;18.33;;;;;;;;5027479;28;45725;-82
2024/01/15 04:19:11;;;;;;;;;21.00;18.67;;;;;;;;5055429;28;45168;-82
2024/01/15 04:21:36;;;;;;;;;24.67;18.33;;;;;;;;5024288;28;45710;-83
2024/01/15 04:24:02;;;;;;;;;19.00;18.00;;;;;;;;5038836;28;45314;-83
2024/01/15 04:26:27;;;;;;;;;27.67;22.00;;;;;;;;5050992;28;45310;-83
2024/01/15 04:28:52;;;;;;;;;25.33;21.00;;;;;;;;5038856;28;45251;-83
2024/01/15 04:31:24;;;;;;;;;23.25;16.75;;;;;;;;5054124;28;45512;-83
2024/01/15 04:33:49;;;;;;;;;22.50;17.25;;;;;;;;5039375;28;46314;-82
2024/01/15 04:36:15;;;;;;;;;22.00;18.00;;;;;;;;5053497;28;45371;-83
2024/01/15 04:38:40;;;;;;;;;20.33;18.33;;;;;;;;5051644;28;45427;-82
2024/01/15 04:41:05;;;;;;;;;19.67;18.00;;;;;;;;5039488;28;45399;-82
2024/01/15 04:43:30;;;;;;;;;21.00;18.33;;;;;;;;5038720;28;47203;-82
2024/01/15 04:45:55;;;;;;;;;18.00;16.00;;;;;;;;5059409;28;45373;-82
2024/01/15 04:48:22;;;;;;;;;21.00;17.00;;;;;;;;5054716;28;45259;-82
2024/01/15 04:50:47;;;;;;;;;18.50;16.00;;;;;;;;5040264;28;45555;-83
2024/01/15 04:53:13;;;;;;;;;28.67;18.67;;;;;;;;5025017;28;47248;-83
2024/01/15 04:55:39;;;;;;;;;18.50;18.25;;;;;;;;5051538;28;45622;-82
2024/01/15 04:58:04;;;;;;;;;20.67;16.00;;;;;;;;5051140;28;45383;-82
2024/01/15 05:00:29;;;;;;;;;22.00;17.00;;;;;;;;5055980;28;45600;-83
2024/01/15 05:02:55;;;;;;;;;18.67;17.33;;;;;;;;5038149;28;47180;-83
2024/01/15 05:05:21;;;;;;;;;29.50;25.75;;;;;;;;5056528;28;45683;-83
2024/01/15 05:07:46;;;;;;;;;23.00;22.00;;;;;;;;5056034;28;45344;-82
2024/01/15 05:10:11;;;;;;;;;25.67;22.00;;;;;;;;5055901;28;45350;-83
2024/01/15 05:12:36;;;;;;;;;23.00;17.75;;;;;;;;5045152;28;45445;-82
2024/01/15 05:15:02;;;;;;;;;25.33;22.00;;;;;;;;5038546;28;45306;-82
2024/01/15 05:17:27;;;;;;;;;37.25;26.50;;;;;;;;5037964;28;45621;-83
2024/01/15 05:19:52;;;;;;;;;18.67;16.33;;;;;;;;5051025;28;45404;-82
2024/01/15 05:22:17;;;;;;;;;26.33;26.33;;;;;;;;5041880;28;45966;-82
2024/01/15 05:24:43;;;;;;;;;23.33;18.00;;;;;;;;5040147;28;45340;-82
2024/01/15 05:27:08;;;;;;;;;24.33;21.00;;;;;;;;5060228;28;45654;-83
2024/01/15 05:29:33;;;;;;;;;22.33;21.00;;;;;;;;5028679;28;45816;-82
2024/01/15 05:31:58;;;;;;;;;24.00;21.67;;;;;;;;5034591;28;48144;-82
2024/01/15 05:34:23;;;;;;;;;24.33;22.33;;;;;;;;5058401;28;45229;-82
2024/01/15 05:36:48;;;;;;;;;29.00;26.00;;;;;;;;5060302;28;45259;-82
2024/01/15 05:39:14;;;;;;;;;37.00;30.00;;;;;;;;5050497;28;45349;-82
2024/01/15 05:41:39;;;;;;;;;33.00;26.33;;;;;;;;5054987;28;45317;-82
2024/01/15 05:44:04;;;;;;;;;25.33;19.67;;;;;;;;5041265;28;45777;-82
2024/01/15 05:46:29;;;;;;;;;21.67;21.00;;;;;;;;5042424;28;45177;-83
2024/01/15 05:48:54;;;;;;;;;24.67;21.00;;;;;;;;5059642;28;45678;-82
2024/01/15 05:51:20;;;;;;;;;33.33;25.33;;;;;;;;5034272;28;47547;-82
2024/01/15 05:53:45;;;;;;;;;34.25;26.25;;;;;;;;5057504;28;45254;-82
2024/01/15 05:56:11;;;;;;;;;26.00;22.00;;;;;;;;5023674;28;45268;-82
2024/01/15 05:58:36;;;;;;;;;21.50;16.75;;;;;;;;5044200;28;45312;-83
2024/01/15 06:01:01;;;;;;;;;23.00;20.67;;;;;;;;5057760;28;45538;-83
2024/01/15 06:03:27;;;;;;;;;24.00;20.00;;;;;;;;5037021;28;45362;-83
2024/01/15 06:05:52;;;;;;;;;17.25;16.50;;;;;;;;5053885;28;45470;-82
2024/01/15 06:08:17;;;;;;;;;25.33;20.67;;;;;;;;5047055;28;45311;-82
2024/01/15 06:10:42;;;;;;;;;18.00;16.67;;;;;;;;5028876;28;47605;-83
2024/01/15 06:13:07;;;;;;;;;22.00;18.67;;;;;;;;5035067;28;46292;-83
2024/01/15 06:15:32;;;;;;;;;23.00;22.00;;;;;;;;5057794;28;45549;-83
2024/01/15 06:17:58;;;;;;;;;39.00;37.67;;;;;;;;5052753;28;45379;-83
2024/01/15 06:20:23;;;;;;;;;44.33;34.67;;;;;;;;5057903;28;45511;-83
2024/01/15 06:22:48;;;;;;;;;43.33;39.00;;;;;;;;5052624;28;45321;-83
2024/01/15 06:25:13;;;;;;;;;44.67;37.67;;;;;;;;5049258;28;45419;-83
2024/01/15 06:27:38;;;;;;;;;25.33;25.00;;;;;;;;5033299;28;45829;-83
2024/01/15 06:30:04;;;;;;;;;19.00;19.00;;;;;;;;5047068;28;45508;-82
2024/01/15 06:32:30;;;;;;;;;26.75;18.00;;;;;;;;5047955;28;45399;-83
2024/01/15 06:34:55;;;;;;;;;19.00;17.75;;;;;;;;5059400;28;45807;-82
2024/01/15 06:37:20;;;;;;;;;26.33;17.33;;;;;;;;5057688;28;45432;-83
2024/01/15 06:39:45;;;;;;;;;21.00;19.00;;;;;;;;5041124;28;48134;-83
2024/01/15 06:42:10;;;;;;;;;21.00;21.00;;;;;;;;5055540;28;45381;-83
2024/01/15 06:44:36;;;;;;;;;19.67;18.00;;;;;;;;5040777;28;45319;-83
2024/01/15 06:47:02;;;;;;;;;23.33;20.33;;;;;;;;5057613;28;45632;-82
2024/01/15 06:49:28;;;;;;;;;19.00;17.25;;;;;;;;5053099;28;45413;-82
2024/01/15 06:51:53;;;;;;;;;22.25;16.50;;;;;;;;5017662;28;45627;-83
2024/01/15 06:54:18;;;;;;;;;21.33;17.00;;;;;;;;5042639;28;45410;-83
2024/01/15 06:56:44;;;;;;;;;16.33;16.33;;;;;;;;5023152;28;45465;-82
2024/01/15 06:59:09;;;;;;;;;18.00;16.67;;;;;;;;5056140;28;46224;-83
2024/01/15 07:01:34;;;;;;;;;19.67;17.33;;;;;;;;5053024;28;45235;-82
2024/01/15 07:03:59;;;;;;;;;19.00;18.00;;;;;;;;5038552;28;45447;-82
2024/01/15 07:06:24;;;;;;;;;18.33;16.33;;;;;;;;5052287;28;45258;-83
2024/01/15 07:08:49;;;;;;;;;14.67;14.67;;;;;;;;5053958;28;45250;-82
2024/01/15 07:11:15;;;;;;;;;17.67;16.33;;;;;;;;5045658;28;45196;-82
2024/01/15 07:13:40;;;;;;;;;26.75;23.75;;;;;;;;5038212;28;45487;-83
2024/01/15 07:16:05;;;;;;;;;30.33;23.67;;;;;;;;5034230;28;45564;-83
2024/01/15 07:18:30;;;;;;;;;6.33;6.33;;;;;;;;5040413;28;47170;-82
2024/01/15 07:20:56;;;;;;;;;18.33;17.00;;;;;;;;5051650;28;45271;-83
2024/01/15 07:23:21;;;;;;;;;22.00;16.33;;;;;;;;5047996;28;45219;-83
2024/01/15 07:25:46;;;;;;;;;22.33;16.33;;;;;;;;5033892;28;45642;-83
2024/01/15 07:28:11;;;;;;;;;14.33;6.00;;;;;;;;5032625;28;47142;-83
2024/01/15 07:30:38;;;;;;;;;19.00;19.00;;;;;;;;5033963;28;45713;-83
2024/01/15 07:33:04;;;;;;;;;17.25;16.00;;;;;;;;5048272;28;45341;-83
2024/01/15 07:35:29;;;;;;;;;21.25;17.00;;;;;;;;5057108;28;45859;-83
2024/01/15 07:37:54;;;;;;;;;19.00;17.67;;;;;;;;5031722;28;48172;-83
2024/01/15 07:40:19;;;;;;;;;23.33;18.33;;;;;;;;5051157;28;45345;-82
2024/01/15 07:42:45;;;;;;;;;14.67;10.67;;;;;;;;5050550;28;45497;-84
2024/01/15 07:45:10;;;;;;;;;22.00;21.00;;;;;;;;5047908;28;45441;-83
2024/01/15 07:47:35;;;;;;;;;18.50;18.00;;;;;;;;5024400;28;47357;-82
2024/01/15 07:50:01;;;;;;;;;14.00;6.75;;;;;;;;5038324;28;45329;-83
2024/01/15 07:52:26;;;;;;;;;24.50;18.25;;;;;;;;5038451;28;45488;-82
2024/01/15 07:54:51;;;;;;;;;20.33;18.33;;;;;;;;5035825;28;45469;-83
2024/01/15 07:57:16;;;;;;;;;18.33;16.33;;;;;;;;5036539;28;46249;-82
2024/01/15 07:59:42;;;;;;;;;10.75;9.75;;;;;;;;5020216;28;45361;-82
2024/01/15 08:02:07;;;;;;;;;24.00;20.33;;;;;;;;5038814;28;45382;-83
2024/01/15 08:04:32;;;;;;;;;20.33;18.00;;;;;;;;5020409;28;45396;-82
2024/01/15 08:06:57;;;;;;;;;20.33;18.00;;;;;;;;5038528;28;45292;-80
2024/01/15 08:09:23;;;;;;;;;19.50;17.75;;;;;;;;5037805;28;45300;-79
2024/01/15 08:11:49;;;;;;;;;18.25;15.00;;;;;;;;5035548;28;45346;-78
2024/01/15 08:14:14;;;;;;;;;23.00;19.75;;;;;;;;5037510;28;45473;-79
2024/01/15 08:16:40;;;;;;;;;21.50;14.75;;;;;;;;5037276;28;46233;-90
2024/01/15 08:19:05;;;;;;;;;17.25;16.00;;;;;;;;5033986;28;45581;-89
2024/01/15 08:21:31;;;;;;;;;18.33;15.00;;;;;;;;5022265;28;45237;-89
2024/01/15 08:23:57;;;;;;;;;18.00;16.00;;;;;;;;5024336;28;45950;-84
2024/01/15 08:26:22;;;;;;;;;18.75;16.75;;;;;;;;5054946;28;46320;-83
2024/01/15 08:28:48;;;;;;;;;14.00;12.33;;;;;;;;5038712;28;45584;-82
2024/01/15 08:31:13;;;;;;;;;21.50;18.75;;;;;;;;5057723;28;45795;-78
2024/01/15 08:33:38;;;;;;;;;23.33;20.67;;;;;;;;5024747;28;45576;-81
2024/01/15 08:36:03;;;;;;;;;22.75;19.50;;;;;;;;5046455;28;45497;-82
2024/01/15 08:38:29;;;;;;;;;20.50;19.00;;;;;;;;5048045;28;45369;-82
2024/01/15 08:40:56;;;;;;;;;25.67;20.67;;;;;;;;5023408;28;45348;-81
2024/01/15 08:43:21;;;;;;;;;18.00;14.00;;;;;;;;5041197;28;45335;-82
2024/01/15 08:45:48;;;;;;;;;23.33;15.33;;;;;;;;5060189;28;45420;-82
2024/01/15 08:48:13;;;;;;;;;22.50;19.25;;;;;;;;5033059;28;45270;-82
2024/01/15 08:50:38;;;;;;;;;20.33;18.33;;;;;;;;5040720;28;45279;-82
2024/01/15 08:53:04;;;;;;;;;13.67;12.33;;;;;;;;5044343;28;45243;-82
2024/01/15 08:55:29;;;;;;;;;19.75;15.25;;;;;;;;5047868;28;45433;-82
2024/01/15 08:57:54;;;;;;;;;18.33;16.33;;;;;;;;5041124;28;45572;-82
2024/01/15 09:00:19;;;;;;;;;19.33;15.33;;;;;;;;5040766;28;45580;-82
2024/01/15 09:02:45;;;;;;;;;21.00;21.00;;;;;;;;5039211;28;45608;-82
2024/01/15 09:05:10;;;;;;;;;24.33;20.00;;;;;;;;5040544;28;45545;-82
2024/01/15 09:07:35;;;;;;;;;16.75;14.50;;;;;;;;5042885;28;46210;-82
2024/01/15 09:10:01;;;;;;;;;17.33;14.67;;;;;;;;5023511;28;45288;-83
2024/01/15 09:12:27;;;;;;;;;19.00;18.75;;;;;;;;5040632;28;45441;-83
2024/01/15 09:14:53;;;;;;;;;16.00;14.50;;;;;;;;5040151;28;45492;-83
2024/01/15 09:17:19;;;;;;;;;12.50;12.25;;;;;;;;5023138;28;45335;-83
2024/01/15 09:19:44;;;;;;;;;17.00;14.50;;;;;;;;5040542;28;45273;-80
2024/01/15 09:22:09;;;;;;;;;18.33;16.33;;;;;;;;5040321;28;45489;-79
2024/01/15 09:24:34;;;;;;;;;16.25;15.25;;;;;;;;5026583;28;47462;-80
2024/01/15 09:27:00;;;;;;;;;19.00;15.67;;;;;;;;5027048;28;45590;-79
2024/01/15 09:29:25;;;;;;;;;16.33;16.00;;;;;;;;5025359;28;45314;-76
2024/01/15 09:31:50;;;;;;;;;19.25;14.00;;;;;;;;5042707;28;45319;-75
2024/01/15 09:34:16;;;;;;;;;18.67;14.67;;;;;;;;5045259;28;45509;-75
2024/01/15 09:36:43;;;;;;;;;10.00;10.00;;;;;;;;5048970;28;45382;-76
2024/01/15 09:39:10;;;;;;;;;13.50;12.00;;;;;;;;5035023;28;45333;-75
2024/01/15 09:41:36;;;;;;;;;6.25;6.25;;;;;;;;5040067;28;45355;-78
2024/01/15 09:44:02;;;;;;;;;16.25;13.25;;;;;;;;5044413;28;45364;-78
2024/01/15 09:46:27;;;;;;;;;17.00;10.00;;;;;;;;5039291;28;45769;-80
2024/01/15 09:48:53;;;;;;;;;12.25;11.25;;;;;;;;5022202;28;45460;-80
2024/01/15 09:51:19;;;;;;;;;14.75;11.50;;;;;;;;5028869;28;45483;-79
2024/01/15 09:53:45;;;;;;;;;13.50;13.00;;;;;;;;5049719;28;46619;-79
2024/01/15 09:56:10;;;;;;;;;16.00;12.50;;;;;;;;5022357;28;45280;-82
2024/01/15 09:58:36;;;;;;;;;14.25;12.00;;;;;;;;5046769;28;45449;-79
2024/01/15 10:01:03;;;;;;;;;14.25;13.50;;;;;;;;5054812;28;45452;-78
2024/01/15 10:03:28;;;;;;;;;14.50;12.75;;;;;;;;5048341;28;45402;-80
2024/01/15 10:05:54;;;;;;;;;10.00;10.00;;;;;;;;5048663;28;45262;-79
2024/01/15 10:08:19;;;;;;;;;13.25;12.75;;;;;;;;5029490;28;45435;-79
2024/01/15 10:10:45;;;;;;;;;10.50;10.50;;;;;;;;5051247;28;45294;-80
2024/01/15 10:13:11;;;;;;;;;10.33;10.00;;;;;;;;5041396;28;46228;-80
2024/01/15 10:15:37;;;;;;;;;13.25;11.50;;;;;;;;5036564;28;46060;-80
2024/01/15 10:18:03;;;;;;;;;11.75;10.75;;;;;;;;5025947;28;45276;-80
2024/01/15 10:20:28;;;;;;;;;16.00;13.75;;;;;;;;5053921;28;45417;-79
2024/01/15 10:22:55;;;;;;;;;13.00;11.00;;;;;;;;5030117;28;48081;-79
2024/01/15 10:25:25;;;;;;;;;7.25;7.25;;;;;;;;5030980;28;46007;-79
2024/01/15 10:27:59;;;;;;;;;9.00;8.25;;;;;;;;5046378;28;45394;-79
2024/01/15 10:30:24;;;;;;;;;15.50;11.50;;;;;;;;5030868;28;45974;-79
2024/01/15 10:32:59;;;;;;;;;9.33;7.67;;;;;;;;5033596;28;47309;-79
2024/01/15 10:35:26;;;;;;;;;5.00;5.00;;;;;;;;5030564;28;45658;-79
2024/01/15 10:37:51;;;;;;;;;12.00;11.00;;;;;;;;5053802;28;45279;-78
2024/01/15 10:40:18;;;;;;;;;10.75;4.00;;;;;;;;5045728;28;45592;-78
2024/01/15 10:42:43;;;;;;;;;8.00;6.25;;;;;;;;5038183;28;46620;-79
2024/01/15 10:45:09;;;;;;;;;7.00;7.00;;;;;;;;5048801;28;45459;-81
2024/01/15 10:47:34;;;;;;;;;4.00;3.50;;;;;;;;5047080;28;45235;-81
2024/01/15 10:50:00;;;;;;;;;6.50;5.00;;;;;;;;5023716;28;45315;-82
2024/01/15 10:52:25;;;;;;;;;4.00;4.00;;;;;;;;5030318;28;46910;-82
2024/01/15 10:54:51;;;;;;;;;5.00;5.00;;;;;;;;5014388;28;45451;-80
2024/01/15 10:57:17;;;;;;;;;9.00;6.00;;;;;;;;5025801;28;45468;-81
2024/01/15 10:59:42;;;;;;;;;5.25;3.50;;;;;;;;5048556;28;45285;-81
2024/01/15 11:02:08;;;;;;;;;8.33;5.67;;;;;;;;5036129;28;47169;-81
2024/01/15 11:04:33;;;;;;;;;5.00;5.00;;;;;;;;5051896;28;45327;-82
2024/01/15 11:06:58;;;;;;;;;7.25;3.00;;;;;;;;5053464;28;45347;-83
2024/01/15 11:09:24;;;;;;;;;8.50;8.50;;;;;;;;5021266;28;45921;-82
2024/01/15 11:11:51;;;;;;;;;5.00;5.00;;;;;;;;5029635;28;48033;-83
2024/01/15 11:14:36;;;;;;;;;11.75;6.00;;;;;;;;5048050;28;45691;-82
2024/01/15 11:17:01;;;;;;;;;4.25;3.75;;;;;;;;5030219;28;45282;-83
2024/01/15 11:19:35;;;;;;;;;7.25;6.00;;;;;;;;5046255;28;45540;-82
2024/01/15 11:22:00;;;;;;;;;6.00;4.50;;;;;;;;5053866;28;46318;-82
2024/01/15 11:24:33;;;;;;;;;5.00;3.00;;;;;;;;5038758;28;45375;-87
2024/01/15 11:26:58;;;;;;;;;3.00;2.00;;;;;;;;5045278;28;45263;-86
2024/01/15 11:29:26;;;;;;;;;34.33;30.00;;;;;;;;5026120;28;46026;-82
2024/01/15 11:31:55;;;;;;;;;2.75;2.00;;;;;;;;5033957;28;47275;-82
2024/01/15 11:34:20;;;;;;;;;2.00;2.00;;;;;;;;5035291;28;45343;-81
2024/01/15 11:36:46;;;;;;;;;2.00;2.00;;;;;;;;5027896;28;45358;-83
2024/01/15 11:39:30;;;;;;;;;2.67;2.67;;;;;;;;5046509;28;45542;-82
2024/01/15 11:41:58;;;;;;;;;2.75;2.75;;;;;;;;5032569;28;46215;-82
2024/01/15 11:44:23;;;;;;;;;2.50;2.00;;;;;;;;5020260;28;45354;-83
2024/01/15 11:47:02;;;;;;;;;1.00;1.00;;;;;;;;5050728;28;45742;-82
2024/01/15 11:49:49;;;;;;;;;2.00;2.00;;;;;;;;5045058;28;45513;-83
2024/01/15 11:52:16;;;;;;;;;2.00;2.00;;;;;;;;5040521;28;46803;-83
2024/01/15 11:54:44;;;;;;;;;1.75;1.75;;;;;;;;5041689;28;45302;-83
2024/01/15 11:57:10;;;;;;;;;4.25;4.00;;;;;;;;5027959;28;45318;-82
2024/01/15 11:59:35;;;;;;;;;1.25;1.25;;;;;;;;5056087;28;45539;-82
2024/01/15 12:02:01;;;;;;;;;1.25;1.00;;;;;;;;5055482;28;45246;-82
2024/01/15 12:04:27;;;;;;;;;5.00;2.00;;;;;;;;5037889;28;45280;-82
2024/01/15 12:06:52;;;;;;;;;1.33;1.33;;;;;;;;5052643;28;45327;-82
2024/01/15 12:09:19;;;;;;;;;1.00;1.00;;;;;;;;5036540;28;45405;-82
2024/01/15 12:11:49;;;;;;;;;1.25;1.25;;;;;;;;5050402;28;45453;-83
2024/01/15 12:14:14;;;;;;;;;1.50;1.50;;;;;;;;5037647;28;45599;-82
2024/01/15 12:16:39;;;;;;;;;2.67;1.00;;;;;;;;5045828;28;45583;-82
2024/01/15 12:19:05;;;;;;;;;2.00;1.00;;;;;;;;5051253;28;45262;-82
2024/01/15 12:21:31;;;;;;;;;1.00;1.00;;;;;;;;5056585;28;46171;-83
2024/01/15 12:23:56;;;;;;;;;0.67;0.00;;;;;;;;5046323;28;45373;-82
2024/01/15 12:26:21;;;;;;;;;1.67;1.67;;;;;;;;5057058;28;45494;-82
2024/01/15 12:28:46;;;;;;;;;1.00;1.00;;;;;;;;5044021;28;45583;-82
2024/01/15 12:31:12;;;;;;;;;3.00;3.00;;;;;;;;5020838;28;48399;-83
2024/01/15 12:33:38;;;;;;;;;1.00;1.00;;;;;;;;5051069;28;45255;-82
2024/01/15 12:36:03;;;;;;;;;2.00;2.00;;;;;;;;5033098;28;45355;-82
2024/01/15 12:38:29;;;;;;;;;2.25;1.75;;;;;;;;5037759;28;45780;-82
2024/01/15 12:40:54;;;;;;;;;1.33;1.33;;;;;;;;5052382;28;45541;-82
2024/01/15 12:43:19;;;;;;;;;2.00;2.00;;;;;;;;5037950;28;45752;-82
2024/01/15 12:45:45;;;;;;;;;1.25;1.00;;;;;;;;5053709;28;45416;-82
2024/01/15 12:48:10;;;;;;;;;1.25;0.00;;;;;;;;5038126;28;45546;-82
2024/01/15 12:50:36;;;;;;;;;2.00;2.00;;;;;;;;5046746;28;46078;-82
2024/01/15 12:53:01;;;;;;;;;2.50;2.25;;;;;;;;5045244;28;45390;-82
2024/01/15 12:55:26;;;;;;;;;1.50;1.50;;;;;;;;5038297;28;45327;-82
2024/01/15 12:57:54;;;;;;;;;1.00;0.67;;;;;;;;5040934;28;45448;-82
2024/01/15 13:00:19;;;;;;;;;1.00;0.00;;;;;;;;5053668;28;46121;-83
2024/01/15 13:02:45;;;;;;;;;1.00;0.00;;;;;;;;5052355;28;45251;-83
2024/01/15 13:05:13;;;;;;;;;3.00;1.00;;;;;;;;5038087;28;45345;-79
2024/01/15 13:07:38;;;;;;;;;1.00;1.00;;;;;;;;5034658;28;45861;-79
2024/01/15 13:10:04;;;;;;;;;0.00;0.00;;;;;;;;5048958;28;45348;-79
2024/01/15 13:12:30;;;;;;;;;1.00;1.00;;;;;;;;5046045;28;45672;-79
2024/01/15 13:14:56;;;;;;;;;2.00;1.00;;;;;;;;5023286;28;45395;-78
2024/01/15 13:17:21;;;;;;;;;1.75;0.50;;;;;;;;5040776;28;45436;-79
2024/01/15 13:19:46;;;;;;;;;2.25;1.00;;;;;;;;5035888;28;48313;-78
2024/01/15 13:22:13;;;;;;;;;1.25;1.00;;;;;;;;5040328;28;45799;-79
2024/01/15 13:24:39;;;;;;;;;0.00;0.00;;;;;;;;5049293;28;45298;-79
2024/01/15 13:27:05;;;;;;;;;2.00;1.00;;;;;;;;5053880;28;45505;-79
2024/01/15 13:29:30;;;;;;;;;0.50;0.50;;;;;;;;5039341;28;46174;-78
2024/01/15 13:31:56;;;;;;;;;5.00;1.00;;;;;;;;5022640;28;45705;-78
2024/01/15 13:34:21;;;;;;;;;0.75;0.75;;;;;;;;5039909;28;45366;-79
2024/01/15 13:36:46;;;;;;;;;3.00;2.00;;;;;;;;5045911;28;46458;-82
2024/01/15 13:39:11;;;;;;;;;1.00;0.00;;;;;;;;5040319;28;46144;-82
2024/01/15 13:41:37;;;;;;;;;1.33;1.33;;;;;;;;5041268;28;45273;-82
2024/01/15 13:44:02;;;;;;;;;0.75;0.00;;;;;;;;5025889;28;45510;-82
2024/01/15 13:46:29;;;;;;;;;0.33;0.33;;;;;;;;5040807;28;45489;-82
2024/01/15 13:48:54;;;;;;;;;0.00;0.00;;;;;;;;5049776;28;46251;-82
2024/01/15 13:51:22;;;;;;;;;2.00;0.50;;;;;;;;5040913;28;45416;-82
2024/01/15 13:53:47;;;;;;;;;0.00;0.00;;;;;;;;5027840;28;45432;-82
2024/01/15 13:56:12;;;;;;;;;0.00;0.00;;;;;;;;5046700;28;45960;-82
2024/01/15 13:58:37;;;;;;;;;0.67;0.00;;;;;;;;5038387;28;45796;-82
2024/01/15 14:01:05;;;;;;;;;2.00;0.00;;;;;;;;5040616;28;45386;-82
2024/01/15 14:03:31;;;;;;;;;1.25;1.00;;;;;;;;5040382;28;46365;-82
2024/01/15 14:05:56;;;;;;;;;2.00;0.00;;;;;;;;5022911;28;45456;-82
2024/01/15 14:08:21;;;;;;;;;0.00;0.00;;;;;;;;5024501;28;47325;-81
2024/01/15 14:10:47;;;;;;;;;0.00;0.00;;;;;;;;5039732;28;45610;-81
2024/01/15 14:13:12;;;;;;;;;0.50;0.00;;;;;;;;5018270;28;45455;-81
2024/01/15 14:15:37;;;;;;;;;1.00;0.67;;;;;;;;5037203;28;45421;-81